sensor_id;sensor_type;location;lat;lon;timestamp;P1;P2;P0
74434;PMS7003;62867;52.038;29.256;2023-05-07T00:01:17;10.4;8.6;5
74434;PMS7003;62867;52.038;29.256;2023-05-07T00:07:09;11;8.4;5
74434;PMS7003;62867;52.038;29.256;2023-05-07T00:12:09;9.8;7.6;4.4
74434;PMS7003;62867;52.038;29.256;2023-05-07T00:16:29;10.8;7.8;4.6
74434;PMS7003;62867;52.038;29.256;2023-05-07T00:21:55;11.8;8.4;4.8
74434;PMS7003;62867;52.038;29.256;2023-05-07T00:26:53;9.3;8.3;5.3
74434;PMS7003;62867;52.038;29.256;2023-05-07T00:31:29;9.2;7.6;4.2
74434;PMS7003;62867;52.038;29.256;2023-05-07T00:36:31;9.4;8;4.2
74434;PMS7003;62867;52.038;29.256;2023-05-07T00:41:51;10;7.2;4.2
74434;PMS7003;62867;52.038;29.256;2023-05-07T00:47:05;10.8;8.4;5
74434;PMS7003;62867;52.038;29.256;2023-05-07T00:52:08;10.6;9.2;5.2
74434;PMS7003;62867;52.038;29.256;2023-05-07T00:56:29;10.8;8.6;5
74434;PMS7003;62867;52.038;29.256;2023-05-07T01:02:07;10;8;5
74434;PMS7003;62867;52.038;29.256;2023-05-07T01:06:56;9.4;8.2;5.4
74434;PMS7003;62867;52.038;29.256;2023-05-07T01:11:53;11.6;9.8;5.6
74434;PMS7003;62867;52.038;29.256;2023-05-07T01:16:17;9.8;9.4;5.4
74434;PMS7003;62867;52.038;29.256;2023-05-07T01:21:56;8.8;7.6;4.6
74434;PMS7003;62867;52.038;29.256;2023-05-07T01:26:17;11.5;8;5.3
74434;PMS7003;62867;52.038;29.256;2023-05-07T01:31:50;11;9.2;4.8
74434;PMS7003;62867;52.038;29.256;2023-05-07T01:37:07;11.4;8.8;5.2
74434;PMS7003;62867;52.038;29.256;2023-05-07T01:41:29;11.8;9.2;5.2
74434;PMS7003;62867;52.038;29.256;2023-05-07T01:47:07;10;8.2;4.8
74434;PMS7003;62867;52.038;29.256;2023-05-07T01:51:39;10.8;8.8;4.8
74434;PMS7003;62867;52.038;29.256;2023-05-07T01:56:18;9.6;8.6;5
74434;PMS7003;62867;52.038;29.256;2023-05-07T02:01:55;10.4;9.4;4.6
74434;PMS7003;62867;52.038;29.256;2023-05-07T02:06:39;9.4;7.6;4.8
74434;PMS7003;62867;52.038;29.256;2023-05-07T02:11:17;11.4;9.4;5.4
74434;PMS7003;62867;52.038;29.256;2023-05-07T02:16:55;10.8;8;4.4
74434;PMS7003;62867;52.038;29.256;2023-05-07T02:22:07;10.4;8;5.4
74434;PMS7003;62867;52.038;29.256;2023-05-07T02:26:39;10.8;9;4.8
74434;PMS7003;62867;52.038;29.256;2023-05-07T02:31:43;11.6;8;4.6
74434;PMS7003;62867;52.038;29.256;2023-05-07T02:37:07;10;9.2;4.8
74434;PMS7003;62867;52.038;29.256;2023-05-07T02:42:07;11.2;8.6;4.4
74434;PMS7003;62867;52.038;29.256;2023-05-07T02:46:43;11.2;10;6
74434;PMS7003;62867;52.038;29.256;2023-05-07T02:51:30;11.4;9.6;5.6
74434;PMS7003;62867;52.038;29.256;2023-05-07T02:56:55;10.6;8.2;5.2
74434;PMS7003;62867;52.038;29.256;2023-05-07T03:01:39;10.6;9;5
74434;PMS7003;62867;52.038;29.256;2023-05-07T03:06:27;11.2;8.4;4.4
74434;PMS7003;62867;52.038;29.256;2023-05-07T03:12:07;10;8.8;5
74434;PMS7003;62867;52.038;29.256;2023-05-07T03:17:07;10;8.8;5
74434;PMS7003;62867;52.038;29.256;2023-05-07T03:21:33;10.2;7.8;4.6
74434;PMS7003;62867;52.038;29.256;2023-05-07T03:26:55;10.2;8.2;4.8
74434;PMS7003;62867;52.038;29.256;2023-05-07T03:31:55;9.5;8;4.3
74434;PMS7003;62867;52.038;29.256;2023-05-07T03:36:43;8.6;6.6;4.6
74434;PMS7003;62867;52.038;29.256;2023-05-07T03:41:43;8.8;7.8;4.6
74434;PMS7003;62867;52.038;29.256;2023-05-07T03:46:19;9.6;8.2;4.6
74434;PMS7003;62867;52.038;29.256;2023-05-07T03:52:07;8.2;6.4;4.6
74434;PMS7003;62867;52.038;29.256;2023-05-07T03:57:07;11.4;7.8;4.6
74434;PMS7003;62867;52.038;29.256;2023-05-07T04:01:29;10.4;8.2;4.6
74434;PMS7003;62867;52.038;29.256;2023-05-07T04:07:07;11;9.2;5
74434;PMS7003;62867;52.038;29.256;2023-05-07T04:11:55;10.8;9.2;4.8
74434;PMS7003;62867;52.038;29.256;2023-05-07T04:16:29;10.4;7.6;4.4
74434;PMS7003;62867;52.038;29.256;2023-05-07T04:21:39;9;7.4;4.8
74434;PMS7003;62867;52.038;29.256;2023-05-07T04:26:55;8.4;6.8;4
74434;PMS7003;62867;52.038;29.256;2023-05-07T04:31:51;13;8.5;5.5
74434;PMS7003;62867;52.038;29.256;2023-05-07T04:36:51;10.8;7.6;4.6
74434;PMS7003;62867;52.038;29.256;2023-05-07T04:42:07;11.4;8.8;5
74434;PMS7003;62867;52.038;29.256;2023-05-07T04:46:43;10.8;8.4;5
74434;PMS7003;62867;52.038;29.256;2023-05-07T04:52:07;10.4;9;5
74434;PMS7003;62867;52.038;29.256;2023-05-07T04:56:39;8.6;6.6;4.4
74434;PMS7003;62867;52.038;29.256;2023-05-07T05:01:29;9.4;6.2;3.6
74434;PMS7003;62867;52.038;29.256;2023-05-07T05:06:55;8.6;6.4;4.2
74434;PMS7003;62867;52.038;29.256;2023-05-07T05:11:39;7.2;6;3.8
74434;PMS7003;62867;52.038;29.256;2023-05-07T05:16:17;6.6;5.8;3.8
74434;PMS7003;62867;52.038;29.256;2023-05-07T05:21:55;8.4;6.4;4
74434;PMS7003;62867;52.038;29.256;2023-05-07T05:27:07;8.6;7;4
74434;PMS7003;62867;52.038;29.256;2023-05-07T05:31:39;6.3;5.8;3.3
74434;PMS7003;62867;52.038;29.256;2023-05-07T05:36:31;7.2;5.8;3.4
74434;PMS7003;62867;52.038;29.256;2023-05-07T05:42:07;6.2;5.6;3.6
74434;PMS7003;62867;52.038;29.256;2023-05-07T05:47:07;7.4;6.6;4.4
74434;PMS7003;62867;52.038;29.256;2023-05-07T05:51:43;7.4;5;3.2
74434;PMS7003;62867;52.038;29.256;2023-05-07T05:56:27;7.8;4.8;3
74434;PMS7003;62867;52.038;29.256;2023-05-07T06:02:07;6.6;5.4;3.8
74434;PMS7003;62867;52.038;29.256;2023-05-07T06:06:57;6.8;6.2;3.4
74434;PMS7003;62867;52.038;29.256;2023-05-07T06:11:29;6.6;5.6;3.6
74434;PMS7003;62867;52.038;29.256;2023-05-07T06:16:17;7.6;6.2;3.6
74434;PMS7003;62867;52.038;29.256;2023-05-07T06:22:09;6.4;5.4;3.6
74434;PMS7003;62867;52.038;29.256;2023-05-07T06:26:29;7.2;5.4;3.4
74434;PMS7003;62867;52.038;29.256;2023-05-07T06:31:39;6;5.3;3.5
74434;PMS7003;62867;52.038;29.256;2023-05-07T06:37:11;6;5;3.2
74434;PMS7003;62867;52.038;29.256;2023-05-07T06:41:27;6;4.4;3
74434;PMS7003;62867;52.038;29.256;2023-05-07T06:46:41;6.2;5.4;3.6
74434;PMS7003;62867;52.038;29.256;2023-05-07T06:51:55;4.4;4;2.6
74434;PMS7003;62867;52.038;29.256;2023-05-07T06:56:43;7.2;5.4;3.6
74434;PMS7003;62867;52.038;29.256;2023-05-07T07:01:59;6;5.2;3.6
74434;PMS7003;62867;52.038;29.256;2023-05-07T07:06:29;8;6.6;3.8
74434;PMS7003;62867;52.038;29.256;2023-05-07T07:12:09;7;5.4;3.6
74434;PMS7003;62867;52.038;29.256;2023-05-07T07:16:59;8.8;7.2;3.8
74434;PMS7003;62867;52.038;29.256;2023-05-07T07:21:31;6.2;5.6;3.4
74434;PMS7003;62867;52.038;29.256;2023-05-07T07:26:39;6.2;5;3.2
74434;PMS7003;62867;52.038;29.256;2023-05-07T07:31:55;5.5;4.3;2.5
74434;PMS7003;62867;52.038;29.256;2023-05-07T07:36:17;6.4;5;3.2
74434;PMS7003;62867;52.038;29.256;2023-05-07T07:41:55;3.8;3.6;2.6
74434;PMS7003;62867;52.038;29.256;2023-05-07T07:47:11;5.4;4.2;2.6
74434;PMS7003;62867;52.038;29.256;2023-05-07T07:51:55;4.8;3.4;2.2
74434;PMS7003;62867;52.038;29.256;2023-05-07T07:57:10;6.4;5;3
74434;PMS7003;62867;52.038;29.256;2023-05-07T08:01:41;8.6;6.8;4.2
74434;PMS7003;62867;52.038;29.256;2023-05-07T08:06:18;4.4;3.8;3
74434;PMS7003;62867;52.038;29.256;2023-05-07T08:11:57;4.6;4.2;2.6
74434;PMS7003;62867;52.038;29.256;2023-05-07T08:16:30;4.6;3.6;2.2
74434;PMS7003;62867;52.038;29.256;2023-05-07T08:21:29;7;5.2;3.6
74434;PMS7003;62867;52.038;29.256;2023-05-07T08:26:51;4.4;4;2.4
74434;PMS7003;62867;52.038;29.256;2023-05-07T08:32:11;4.2;3;1.8
74434;PMS7003;62867;52.038;29.256;2023-05-07T08:36:29;4.5;3.3;2
74434;PMS7003;62867;52.038;29.256;2023-05-07T08:41:44;3.6;2.8;1.4
74434;PMS7003;62867;52.038;29.256;2023-05-07T08:47:12;4.6;2.8;1.4
74434;PMS7003;62867;52.038;29.256;2023-05-07T08:52:12;5.4;2.8;1.4
74434;PMS7003;62867;52.038;29.256;2023-05-07T08:56:43;3.8;2.8;1.6
74434;PMS7003;62867;52.038;29.256;2023-05-07T09:01:39;4.8;3.4;2
74434;PMS7003;62867;52.038;29.256;2023-05-07T09:07:11;4.4;2.8;1.4
74434;PMS7003;62867;52.038;29.256;2023-05-07T09:11:59;4.2;3;1.8
74434;PMS7003;62867;52.038;29.256;2023-05-07T09:16:17;3.4;3;1.6
74434;PMS7003;62867;52.038;29.256;2023-05-07T09:21:18;3.8;3.2;1.8
74434;PMS7003;62867;52.038;29.256;2023-05-07T09:27:11;3.8;3.2;1.8
74434;PMS7003;62867;52.038;29.256;2023-05-07T09:31:44;6.2;4.4;3
74434;PMS7003;62867;52.038;29.256;2023-05-07T09:36:39;14.8;12.3;7.8
74434;PMS7003;62867;52.038;29.256;2023-05-07T09:42:09;9.8;7.6;4.8
74434;PMS7003;62867;52.038;29.256;2023-05-07T09:46:43;4.8;4.2;2.6
74434;PMS7003;62867;52.038;29.256;2023-05-07T09:51:45;3.6;2.2;1
74434;PMS7003;62867;52.038;29.256;2023-05-07T09:56:55;9.6;8.2;5.4
74434;PMS7003;62867;52.038;29.256;2023-05-07T10:01:28;6.2;4.2;2.2
74434;PMS7003;62867;52.038;29.256;2023-05-07T10:06:34;4.4;3.2;1.6
74434;PMS7003;62867;52.038;29.256;2023-05-07T10:11:43;4.6;3.8;2
74434;PMS7003;62867;52.038;29.256;2023-05-07T10:17:10;7.4;5;2.8
74434;PMS7003;62867;52.038;29.256;2023-05-07T10:22:11;6.2;4.4;2.4
74434;PMS7003;62867;52.038;29.256;2023-05-07T10:27:12;4.2;4;2.6
74434;PMS7003;62867;52.038;29.256;2023-05-07T10:31:48;5;3.8;2.6
74434;PMS7003;62867;52.038;29.256;2023-05-07T10:37:12;5;4.3;2
74434;PMS7003;62867;52.038;29.256;2023-05-07T10:41:32;6;4.4;3
74434;PMS7003;62867;52.038;29.256;2023-05-07T10:46:44;3.8;3.4;1.8
74434;PMS7003;62867;52.038;29.256;2023-05-07T10:51:44;15.8;12.4;7.2
74434;PMS7003;62867;52.038;29.256;2023-05-07T10:56:44;7;5.6;3.2
74434;PMS7003;62867;52.038;29.256;2023-05-07T11:02:12;5;3.8;2
74434;PMS7003;62867;52.038;29.256;2023-05-07T11:06:18;5.2;4.2;2.4
74434;PMS7003;62867;52.038;29.256;2023-05-07T11:11:18;5.2;4.6;2.4
74434;PMS7003;62867;52.038;29.256;2023-05-07T11:17:10;6.2;4.6;2.6
74434;PMS7003;62867;52.038;29.256;2023-05-07T11:22:27;5.6;5;2.8
74434;PMS7003;62867;52.038;29.256;2023-05-07T11:26:30;4.6;3.8;2
74434;PMS7003;62867;52.038;29.256;2023-05-07T11:31:56;4.6;3.8;2.8
74434;PMS7003;62867;52.038;29.256;2023-05-07T11:37:00;5.8;4;2.5
74434;PMS7003;62867;52.038;29.256;2023-05-07T11:41:33;7;4.8;3.2
74434;PMS7003;62867;52.038;29.256;2023-05-07T11:46:18;7;6.2;2.8
74434;PMS7003;62867;52.038;29.256;2023-05-07T11:51:56;7.4;6.4;3.8
74434;PMS7003;62867;52.038;29.256;2023-05-07T11:57:14;5.4;4.4;2.6
74434;PMS7003;62867;52.038;29.256;2023-05-07T12:02:13;7.2;3.8;2.4
74434;PMS7003;62867;52.038;29.256;2023-05-07T12:06:56;7.6;4.8;2.8
74434;PMS7003;62867;52.038;29.256;2023-05-07T12:12:12;6.4;5.6;2.8
74434;PMS7003;62867;52.038;29.256;2023-05-07T12:17:00;9.4;7;4.2
74434;PMS7003;62867;52.038;29.256;2023-05-07T12:21:42;9;7.2;5
74434;PMS7003;62867;52.038;29.256;2023-05-07T12:26:40;8.8;6.6;4
74434;PMS7003;62867;52.038;29.256;2023-05-07T12:31:44;10.2;7.4;4.6
74434;PMS7003;62867;52.038;29.256;2023-05-07T12:36:18;6.2;4.6;2
74434;PMS7003;62867;52.038;29.256;2023-05-07T12:42:14;6.8;6;3.3
74434;PMS7003;62867;52.038;29.256;2023-05-07T12:47:12;6.8;5.6;3.6
74434;PMS7003;62867;52.038;29.256;2023-05-07T12:51:18;15;13.6;8.6
74434;PMS7003;62867;52.038;29.256;2023-05-07T12:57:10;15.6;12.2;7.8
74434;PMS7003;62867;52.038;29.256;2023-05-07T13:02:00;7.6;6.4;3.8
74434;PMS7003;62867;52.038;29.256;2023-05-07T13:06:18;7;5.6;3
74434;PMS7003;62867;52.038;29.256;2023-05-07T13:12:00;6.8;6;3.4
74434;PMS7003;62867;52.038;29.256;2023-05-07T13:16:44;8.6;5.8;3.8
74434;PMS7003;62867;52.038;29.256;2023-05-07T13:21:30;5.4;4.8;2.4
74434;PMS7003;62867;52.038;29.256;2023-05-07T13:26:56;7;5.2;3
74434;PMS7003;62867;52.038;29.256;2023-05-07T13:32:12;9;7.2;4.6
74434;PMS7003;62867;52.038;29.256;2023-05-07T13:36:40;5.6;4.6;2.6
74434;PMS7003;62867;52.038;29.256;2023-05-07T13:41:18;7.5;4.8;3
74434;PMS7003;62867;52.038;29.256;2023-05-07T13:47:12;7;5.8;3.6
74434;PMS7003;62867;52.038;29.256;2023-05-07T13:52:12;5.4;4.6;2.4
74434;PMS7003;62867;52.038;29.256;2023-05-07T13:56:44;7;6.4;4.2
74434;PMS7003;62867;52.038;29.256;2023-05-07T14:01:30;8;6.4;3.2
74434;PMS7003;62867;52.038;29.256;2023-05-07T14:07:12;8.8;6.2;3.8
74434;PMS7003;62867;52.038;29.256;2023-05-07T14:12:00;9;6.6;3.4
74434;PMS7003;62867;52.038;29.256;2023-05-07T14:16:40;7.6;6.2;3.6
74434;PMS7003;62867;52.038;29.256;2023-05-07T14:21:40;8.8;6.6;4.6
74434;PMS7003;62867;52.038;29.256;2023-05-07T14:27:12;9.4;8.8;5.6
74434;PMS7003;62867;52.038;29.256;2023-05-07T14:31:44;8.6;7.2;4.4
74434;PMS7003;62867;52.038;29.256;2023-05-07T14:36:30;9.8;7.8;4.8
74434;PMS7003;62867;52.038;29.256;2023-05-07T14:42:14;9.5;8.3;5.3
74434;PMS7003;62867;52.038;29.256;2023-05-07T14:46:18;10;8.6;5.4
74434;PMS7003;62867;52.038;29.256;2023-05-07T14:51:44;9.8;8.4;4.4
74434;PMS7003;62867;52.038;29.256;2023-05-07T14:56:56;11;9.2;5
74434;PMS7003;62867;52.038;29.256;2023-05-07T15:01:42;11.8;8.8;5.6
74434;PMS7003;62867;52.038;29.256;2023-05-07T15:07:10;9.8;8.2;4.8
74434;PMS7003;62867;52.038;29.256;2023-05-07T15:11:42;12.2;10;5.4
74434;PMS7003;62867;52.038;29.256;2023-05-07T15:17:10;10.8;9;5.4
74434;PMS7003;62867;52.038;29.256;2023-05-07T15:21:56;13.2;9.2;5.8
74434;PMS7003;62867;52.038;29.256;2023-05-07T15:26:18;13.2;10;6.2
74434;PMS7003;62867;52.038;29.256;2023-05-07T15:31:40;12;10;5.8
74434;PMS7003;62867;52.038;29.256;2023-05-07T15:36:54;11;9.2;5.2
74434;PMS7003;62867;52.038;29.256;2023-05-07T15:41:30;12.5;9.5;5.8
74434;PMS7003;62867;52.038;29.256;2023-05-07T15:46:56;11.4;8.8;5.6
74434;PMS7003;62867;52.038;29.256;2023-05-07T15:52:12;10.4;9.2;5.4
74434;PMS7003;62867;52.038;29.256;2023-05-07T15:56:44;9.6;7.8;4.8
74434;PMS7003;62867;52.038;29.256;2023-05-07T16:02:12;19.2;15.4;8.6
74434;PMS7003;62867;52.038;29.256;2023-05-07T16:06:30;9.6;7.6;5
74434;PMS7003;62867;52.038;29.256;2023-05-07T16:11:40;9.6;8.6;5.8
74434;PMS7003;62867;52.038;29.256;2023-05-07T16:16:34;11;9.2;5.8
74434;PMS7003;62867;52.038;29.256;2023-05-07T16:21:42;10.6;8.6;5.8
74434;PMS7003;62867;52.038;29.256;2023-05-07T16:26:18;12.8;10.6;7.2
74434;PMS7003;62867;52.038;29.256;2023-05-07T16:31:46;11.8;10;6.6
74434;PMS7003;62867;52.038;29.256;2023-05-07T16:37:10;10.6;8;5.2
74434;PMS7003;62867;52.038;29.256;2023-05-07T16:41:40;12.3;8.3;5.3
74434;PMS7003;62867;52.038;29.256;2023-05-07T16:46:32;10.6;9.4;5.8
74434;PMS7003;62867;52.038;29.256;2023-05-07T16:52:12;12;10.6;6.8
74434;PMS7003;62867;52.038;29.256;2023-05-07T16:57:12;13.4;9.8;6.2
74434;PMS7003;62867;52.038;29.256;2023-05-07T17:01:44;13.4;10.8;6.4
74434;PMS7003;62867;52.038;29.256;2023-05-07T17:06:18;12.2;10;6.2
74434;PMS7003;62867;52.038;29.256;2023-05-07T17:12:12;11.8;9;6
74434;PMS7003;62867;52.038;29.256;2023-05-07T17:17:00;12.4;10;6.6
74434;PMS7003;62867;52.038;29.256;2023-05-07T17:21:30;13.2;10.8;6.4
74434;PMS7003;62867;52.038;29.256;2023-05-07T17:26:38;15.4;12.2;7.2
74434;PMS7003;62867;52.038;29.256;2023-05-07T17:32:10;16.2;12.4;8.4
74434;PMS7003;62867;52.038;29.256;2023-05-07T17:36:30;19.4;14.8;8.6
74434;PMS7003;62867;52.038;29.256;2023-05-07T17:41:46;16.2;13.4;8.4
74434;PMS7003;62867;52.038;29.256;2023-05-07T17:47:12;14.3;11.8;7
74434;PMS7003;62867;52.038;29.256;2023-05-07T17:51:32;15.8;13;8.4
74434;PMS7003;62867;52.038;29.256;2023-05-07T17:56:44;17.4;12.6;8
74434;PMS7003;62867;52.038;29.256;2023-05-07T18:01:56;14.8;12.2;7.4
74434;PMS7003;62867;52.038;29.256;2023-05-07T18:06:30;15.2;11.8;7.6
74434;PMS7003;62867;52.038;29.256;2023-05-07T18:12:00;14;12.6;7.4
74434;PMS7003;62867;52.038;29.256;2023-05-07T18:16:18;15.2;11.6;7.4
74434;PMS7003;62867;52.038;29.256;2023-05-07T18:22:12;16.4;12.4;8
74434;PMS7003;62867;52.038;29.256;2023-05-07T18:26:56;17.6;15;9
74434;PMS7003;62867;52.038;29.256;2023-05-07T18:32:12;20.6;15.8;9.6
74434;PMS7003;62867;52.038;29.256;2023-05-07T18:36:18;21;17;9.6
74434;PMS7003;62867;52.038;29.256;2023-05-07T18:42:12;16.8;14.8;9
74434;PMS7003;62867;52.038;29.256;2023-05-07T18:46:30;20.5;17.5;10.8
74434;PMS7003;62867;52.038;29.256;2023-05-07T18:51:56;22.6;18.2;10.6
74434;PMS7003;62867;52.038;29.256;2023-05-07T18:56:42;22;18;10.8
74434;PMS7003;62867;52.038;29.256;2023-05-07T19:01:32;22.6;16.2;9
74434;PMS7003;62867;52.038;29.256;2023-05-07T19:06:56;16.4;15.2;9.6
74434;PMS7003;62867;52.038;29.256;2023-05-07T19:11:44;19;16;9.6
74434;PMS7003;62867;52.038;29.256;2023-05-07T19:16:18;22.6;17.2;11.4
74434;PMS7003;62867;52.038;29.256;2023-05-07T19:22:00;21.4;15.8;9.2
74434;PMS7003;62867;52.038;29.256;2023-05-07T19:26:18;21;16.6;10.8
74434;PMS7003;62867;52.038;29.256;2023-05-07T19:31:18;21.4;16.2;9
74434;PMS7003;62867;52.038;29.256;2023-05-07T19:36:56;21.8;16.2;10.8
74434;PMS7003;62867;52.038;29.256;2023-05-07T19:42:12;20.2;15.6;9.4
74434;PMS7003;62867;52.038;29.256;2023-05-07T19:46:57;18.5;15.8;10.3
74434;PMS7003;62867;52.038;29.256;2023-05-07T19:51:44;20.2;15.8;9.4
74434;PMS7003;62867;52.038;29.256;2023-05-07T19:57:12;19.2;15.6;9.4
74434;PMS7003;62867;52.038;29.256;2023-05-07T20:02:12;20.4;15.8;8.8
74434;PMS7003;62867;52.038;29.256;2023-05-07T20:06:32;21;16.6;11
74434;PMS7003;62867;52.038;29.256;2023-05-07T20:11:28;18.8;15.8;8.6
74434;PMS7003;62867;52.038;29.256;2023-05-07T20:17:12;20;15.6;9
74434;PMS7003;62867;52.038;29.256;2023-05-07T20:22:00;17;15;9.2
74434;PMS7003;62867;52.038;29.256;2023-05-07T20:26:28;17.6;14.2;8.6
74434;PMS7003;62867;52.038;29.256;2023-05-07T20:31:18;17.4;14.6;8.2
74434;PMS7003;62867;52.038;29.256;2023-05-07T20:36:58;19;15.2;9.2
74434;PMS7003;62867;52.038;29.256;2023-05-07T20:41:44;19.4;15.6;9.2
74434;PMS7003;62867;52.038;29.256;2023-05-07T20:46:40;15.8;12.8;7.3
74434;PMS7003;62867;52.038;29.256;2023-05-07T20:52:12;17.2;13;8.2
74434;PMS7003;62867;52.038;29.256;2023-05-07T20:56:18;18.2;15;8.6
74434;PMS7003;62867;52.038;29.256;2023-05-07T21:01:44;15.2;11.8;7.2
74434;PMS7003;62867;52.038;29.256;2023-05-07T21:06:56;18;15;8
74434;PMS7003;62867;52.038;29.256;2023-05-07T21:11:40;19.2;14.2;7.6
74434;PMS7003;62867;52.038;29.256;2023-05-07T21:17:00;15.6;13.8;7.6
74434;PMS7003;62867;52.038;29.256;2023-05-07T21:21:32;15.8;13;7.8
74434;PMS7003;62867;52.038;29.256;2023-05-07T21:26:56;18.2;14.6;8.8
74434;PMS7003;62867;52.038;29.256;2023-05-07T21:32:12;18.8;14.2;8.4
74434;PMS7003;62867;52.038;29.256;2023-05-07T21:37:12;18.4;13.4;7.4
74434;PMS7003;62867;52.038;29.256;2023-05-07T21:41:40;18.2;14.4;9.2
74434;PMS7003;62867;52.038;29.256;2023-05-07T21:47:12;18.3;14.3;9
74434;PMS7003;62867;52.038;29.256;2023-05-07T21:51:28;17.4;14.2;8
74434;PMS7003;62867;52.038;29.256;2023-05-07T21:56:56;17.2;14;9.4
74434;PMS7003;62867;52.038;29.256;2023-05-07T22:01:44;19;14.8;10.2
74434;PMS7003;62867;52.038;29.256;2023-05-07T22:06:28;20.4;15.6;9.8
74434;PMS7003;62867;52.038;29.256;2023-05-07T22:11:56;17.8;14.2;9
74434;PMS7003;62867;52.038;29.256;2023-05-07T22:16:28;18.2;13.2;8.6
74434;PMS7003;62867;52.038;29.256;2023-05-07T22:21:40;16.4;13.8;7.8
74434;PMS7003;62867;52.038;29.256;2023-05-07T22:27:10;16.2;14;9.8
74434;PMS7003;62867;52.038;29.256;2023-05-07T22:32:10;20.8;15.4;9.2
74434;PMS7003;62867;52.038;29.256;2023-05-07T22:36:18;20.6;16.2;8.8
74434;PMS7003;62867;52.038;29.256;2023-05-07T22:41:56;14.8;12.4;8.2
74434;PMS7003;62867;52.038;29.256;2023-05-07T22:47:00;16;12.6;7.8
74434;PMS7003;62867;52.038;29.256;2023-05-07T22:51:30;14.8;11.3;7.3
74434;PMS7003;62867;52.038;29.256;2023-05-07T22:56:18;17.6;13;8.4
74434;PMS7003;62867;52.038;29.256;2023-05-07T23:01:56;17;13.2;8.4
74434;PMS7003;62867;52.038;29.256;2023-05-07T23:07:12;15;11.8;7.2
74434;PMS7003;62867;52.038;29.256;2023-05-07T23:12:12;15.2;12.8;8
74434;PMS7003;62867;52.038;29.256;2023-05-07T23:16:44;14.4;11.8;7.2
74434;PMS7003;62867;52.038;29.256;2023-05-07T23:22:12;15.4;12.4;7.6
74434;PMS7003;62867;52.038;29.256;2023-05-07T23:27:02;15.6;12.6;8.4
74434;PMS7003;62867;52.038;29.256;2023-05-07T23:31:18;13.8;11;7
74434;PMS7003;62867;52.038;29.256;2023-05-07T23:36:18;16.2;13.2;7.8
74434;PMS7003;62867;52.038;29.256;2023-05-07T23:42:00;15.8;11.6;7.8
74434;PMS7003;62867;52.038;29.256;2023-05-07T23:46:34;17.2;13.8;8.2
74434;PMS7003;62867;52.038;29.256;2023-05-07T23:51:18;17.5;14.5;8.5
74434;PMS7003;62867;52.038;29.256;2023-05-07T23:57:12;17.4;13.6;7.4
